Time;durP1;ratioP1;P1;durP2;ratioP2;P2;SDS_P1;SDS_P2;PMS_P1;PMS_P2;Temp;Humidity;BMP_temperature;BMP_pressure;BME280_temperature;BME280_humidity;BME280_pressure;Samples;Min_cycle;Max_cycle;Signal;HPM_P1;HPM_P2
2023/04/08 00:01:00;;;;;;;7.30;3.60;;;;;;;;;;5067001;28;20092;-83
2023/04/08 00:03:26;;;;;;;5.70;3.70;;;;;;;;;;5063083;28;20040;-82
2023/04/08 00:05:51;;;;;;;5.20;3.58;;;;;;;;;;5040343;28;20143;-82
2023/04/08 00:08:17;;;;;;;6.40;3.45;;;;;;;;;;5075557;28;20036;-82
2023/04/08 00:10:42;;;;;;;5.40;3.40;;;;;;;;;;5070137;28;20461;-83
2023/04/08 00:13:08;;;;;;;5.40;3.30;;;;;;;;;;5073429;28;20033;-82
2023/04/08 00:15:35;;;;;;;4.47;3.35;;;;;;;;;;5072825;28;20453;-82
2023/04/08 00:18:00;;;;;;;6.28;3.40;;;;;;;;;;5071408;28;20029;-82
2023/04/08 00:20:26;;;;;;;6.50;3.75;;;;;;;;;;5057714;28;20033;-83
2023/04/08 00:22:52;;;;;;;6.03;3.50;;;;;;;;;;5040784;28;20052;-82
2023/04/08 00:25:17;;;;;;;5.05;3.25;;;;;;;;;;5048836;28;20155;-82
2023/04/08 00:27:43;;;;;;;5.05;3.60;;;;;;;;;;5063272;28;20056;-82
2023/04/08 00:30:08;;;;;;;5.65;3.58;;;;;;;;;;5061004;28;20044;-83
2023/04/08 00:32:34;;;;;;;6.82;3.50;;;;;;;;;;5022248;28;20041;-83
2023/04/08 00:35:01;;;;;;;9.55;3.63;;;;;;;;;;5057571;28;20044;-83
2023/04/08 00:37:27;;;;;;;6.18;4.00;;;;;;;;;;5049927;28;20026;-82
2023/04/08 00:39:53;;;;;;;6.90;3.60;;;;;;;;;;5064738;28;20087;-82
2023/04/08 00:42:19;;;;;;;6.45;3.80;;;;;;;;;;5061526;28;20094;-82
2023/04/08 00:44:45;;;;;;;5.05;3.40;;;;;;;;;;5058002;28;20487;-83
2023/04/08 00:47:15;;;;;;;4.40;3.30;;;;;;;;;;5052809;28;20029;-83
2023/04/08 00:49:41;;;;;;;5.25;3.63;;;;;;;;;;5072039;28;20041;-83
2023/04/08 00:52:09;;;;;;;5.90;3.63;;;;;;;;;;5057827;28;20070;-82
2023/04/08 00:54:36;;;;;;;5.18;3.25;;;;;;;;;;5056094;28;20032;-82
2023/04/08 00:57:03;;;;;;;6.03;3.90;;;;;;;;;;5053780;28;20108;-83
2023/04/08 00:59:29;;;;;;;5.72;3.50;;;;;;;;;;5053574;28;20029;-81
2023/04/08 01:02:05;;;;;;;5.43;3.47;;;;;;;;;;5050851;28;20663;-82
2023/04/08 01:05:09;;;;;;;6.07;3.38;;;;;;;;;;5063764;28;20045;-82
2023/04/08 01:07:45;;;;;;;8.30;3.20;;;;;;;;;;4981756;28;20034;-83
2023/04/08 01:10:21;;;;;;;6.53;3.28;;;;;;;;;;5002189;28;20041;-83
2023/04/08 01:12:52;;;;;;;6.05;3.47;;;;;;;;;;5041738;28;20044;-82
2023/04/08 01:15:19;;;;;;;6.20;4.00;;;;;;;;;;5046936;28;20120;-83
2023/04/08 01:17:47;;;;;;;7.35;3.63;;;;;;;;;;5063875;28;20407;-82
2023/04/08 01:20:15;;;;;;;4.88;3.60;;;;;;;;;;5061350;28;20037;-82
2023/04/08 01:23:02;;;;;;;6.25;3.88;;;;;;;;;;5072139;28;20028;-82
2023/04/08 01:25:38;;;;;;;6.20;3.63;;;;;;;;;;5073195;28;20028;-83
2023/04/08 01:28:12;;;;;;;5.88;4.00;;;;;;;;;;5047562;28;20040;-82
2023/04/08 01:30:39;;;;;;;7.38;4.10;;;;;;;;;;5046687;28;20047;-83
2023/04/08 01:33:06;;;;;;;7.07;4.00;;;;;;;;;;5057879;28;20087;-82
2023/04/08 01:35:32;;;;;;;7.00;4.20;;;;;;;;;;5081388;28;20032;-82
2023/04/08 01:37:59;;;;;;;5.53;3.80;;;;;;;;;;5072870;28;20094;-83
2023/04/08 01:40:25;;;;;;;5.95;3.92;;;;;;;;;;5067844;28;20033;-82
2023/04/08 01:42:54;;;;;;;6.53;3.95;;;;;;;;;;5065309;28;20391;-83
2023/04/08 01:45:21;;;;;;;5.97;3.90;;;;;;;;;;5049313;28;20373;-82
2023/04/08 01:47:48;;;;;;;6.10;3.90;;;;;;;;;;5035614;28;20038;-82
2023/04/08 01:50:15;;;;;;;5.30;3.83;;;;;;;;;;5053816;28;20040;-83
2023/04/08 01:52:43;;;;;;;6.07;3.88;;;;;;;;;;5063216;28;20029;-83
2023/04/08 01:55:13;;;;;;;6.53;4.13;;;;;;;;;;5055175;28;20047;-82
2023/04/08 01:57:46;;;;;;;7.10;4.07;;;;;;;;;;5044147;28;20029;-83
2023/04/08 02:00:14;;;;;;;5.70;4.15;;;;;;;;;;5084754;22;20076;-85
2023/04/08 02:02:47;;;;;;;5.90;4.05;;;;;;;;;;5051049;28;20120;-87
2023/04/08 02:05:14;;;;;;;7.20;4.20;;;;;;;;;;5033885;28;20119;-85
2023/04/08 02:07:40;;;;;;;6.00;4.20;;;;;;;;;;5054034;28;20037;-86
2023/04/08 02:10:06;;;;;;;7.03;4.40;;;;;;;;;;5085494;28;20101;-84
2023/04/08 02:12:32;;;;;;;6.03;4.00;;;;;;;;;;5075206;28;20089;-83
2023/04/08 02:14:58;;;;;;;7.85;4.10;;;;;;;;;;5074012;28;20391;-85
2023/04/08 02:17:32;;;;;;;6.78;4.10;;;;;;;;;;5057086;28;20037;-84
2023/04/08 02:20:04;;;;;;;5.95;4.03;;;;;;;;;;5083094;28;20060;-84
2023/04/08 02:22:52;;;;;;;6.00;3.90;;;;;;;;;;5082837;28;20032;-86
2023/04/08 02:25:22;;;;;;;5.95;3.78;;;;;;;;;;5071966;28;20032;-85
2023/04/08 02:27:51;;;;;;;5.72;3.75;;;;;;;;;;5074136;28;20039;-85
2023/04/08 02:30:18;;;;;;;6.60;4.00;;;;;;;;;;5075099;28;20067;-85
2023/04/08 02:32:46;;;;;;;8.38;4.72;;;;;;;;;;5089004;28;20025;-82
2023/04/08 02:35:14;;;;;;;6.15;4.00;;;;;;;;;;5072522;28;20491;-84
2023/04/08 02:37:40;;;;;;;6.60;4.03;;;;;;;;;;5075593;28;20040;-86
2023/04/08 02:40:27;;;;;;;5.90;4.18;;;;;;;;;;5073778;28;20043;-85
2023/04/08 02:42:53;;;;;;;7.22;4.35;;;;;;;;;;5074308;28;20402;-86
2023/04/08 02:45:19;;;;;;;5.60;3.85;;;;;;;;;;5074696;28;20028;-86
2023/04/08 02:47:44;;;;;;;7.07;4.72;;;;;;;;;;5073154;28;20040;-87
2023/04/08 02:50:10;;;;;;;6.80;4.40;;;;;;;;;;5073587;28;20654;-86
2023/04/08 02:52:35;;;;;;;6.40;4.32;;;;;;;;;;5072550;28;20557;-86
2023/04/08 02:55:01;;;;;;;6.55;4.40;;;;;;;;;;5073641;28;20040;-85
2023/04/08 02:57:27;;;;;;;5.82;4.03;;;;;;;;;;5073438;28;20033;-85
2023/04/08 02:59:52;;;;;;;6.60;3.95;;;;;;;;;;5072650;28;20040;-86
2023/04/08 03:02:17;;;;;;;5.57;3.97;;;;;;;;;;5074060;28;20029;-87
2023/04/08 03:04:43;;;;;;;6.53;4.40;;;;;;;;;;5074620;28;20115;-84
2023/04/08 03:07:08;;;;;;;5.88;4.20;;;;;;;;;;5074654;28;20036;-85
2023/04/08 03:09:34;;;;;;;7.22;4.15;;;;;;;;;;5074110;28;20044;-87
2023/04/08 03:12:00;;;;;;;6.40;4.20;;;;;;;;;;5074288;28;20047;-85
2023/04/08 03:14:25;;;;;;;7.70;4.20;;;;;;;;;;5073178;28;20123;-83
2023/04/08 03:16:51;;;;;;;5.85;4.20;;;;;;;;;;5073953;28;20091;-85
2023/04/08 03:19:16;;;;;;;6.93;4.65;;;;;;;;;;5072150;28;20540;-86
2023/04/08 03:21:42;;;;;;;6.38;4.63;;;;;;;;;;5072583;28;20066;-83
2023/04/08 03:24:07;;;;;;;7.10;4.57;;;;;;;;;;5078059;28;20036;-82
2023/04/08 03:26:33;;;;;;;6.20;4.03;;;;;;;;;;5078362;28;20032;-85
2023/04/08 03:28:58;;;;;;;5.85;4.22;;;;;;;;;;5073977;28;20512;-85
2023/04/08 03:31:24;;;;;;;6.65;4.40;;;;;;;;;;5073623;28;20440;-85
2023/04/08 03:33:50;;;;;;;6.53;4.15;;;;;;;;;;5055284;28;20051;-85
2023/04/08 03:36:15;;;;;;;6.03;4.10;;;;;;;;;;5081508;28;20478;-86
2023/04/08 03:38:41;;;;;;;6.22;4.20;;;;;;;;;;5073541;28;20035;-86
2023/04/08 03:41:06;;;;;;;5.50;3.90;;;;;;;;;;5073332;28;20402;-84
2023/04/08 03:43:32;;;;;;;7.10;4.25;;;;;;;;;;5073921;28;20036;-86
2023/04/08 03:45:57;;;;;;;8.32;4.60;;;;;;;;;;5074188;28;20040;-85
2023/04/08 03:48:23;;;;;;;10.75;4.22;;;;;;;;;;5072258;28;20025;-84
2023/04/08 03:50:48;;;;;;;8.63;4.60;;;;;;;;;;5073784;28;20398;-84
2023/04/08 03:53:14;;;;;;;6.90;3.75;;;;;;;;;;5073874;28;20032;-87
2023/04/08 03:55:39;;;;;;;9.85;4.43;;;;;;;;;;5089090;28;20025;-86
2023/04/08 03:58:05;;;;;;;8.25;5.70;;;;;;;;;;5072226;28;20504;-84
2023/04/08 04:00:30;;;;;;;7.57;5.00;;;;;;;;;;5073216;28;20033;-85
2023/04/08 04:02:56;;;;;;;5.85;4.30;;;;;;;;;;5071962;28;20032;-86
2023/04/08 04:05:21;;;;;;;7.32;4.38;;;;;;;;;;5073346;28;20111;-87
2023/04/08 04:07:47;;;;;;;7.47;4.43;;;;;;;;;;5073182;28;20402;-86
2023/04/08 04:10:13;;;;;;;7.03;4.70;;;;;;;;;;5071485;28;20024;-85
2023/04/08 04:12:38;;;;;;;6.50;4.20;;;;;;;;;;5073081;28;20074;-84
2023/04/08 04:15:04;;;;;;;6.55;4.88;;;;;;;;;;5088422;28;20089;-87
2023/04/08 04:17:30;;;;;;;9.52;6.40;;;;;;;;;;5071470;28;20501;-86
2023/04/08 04:19:55;;;;;;;8.20;4.50;;;;;;;;;;5070182;28;20033;-82
2023/04/08 04:22:21;;;;;;;7.50;4.47;;;;;;;;;;5051885;28;20513;-84
2023/04/08 04:24:47;;;;;;;8.13;5.03;;;;;;;;;;5072679;28;20033;-83
2023/04/08 04:27:13;;;;;;;8.70;5.57;;;;;;;;;;5081030;28;20029;-84
2023/04/08 04:29:38;;;;;;;6.43;4.30;;;;;;;;;;5071711;28;20516;-86
2023/04/08 04:32:05;;;;;;;8.98;4.30;;;;;;;;;;5072744;28;20486;-87
2023/04/08 04:34:31;;;;;;;8.55;4.43;;;;;;;;;;5071264;28;20402;-86
2023/04/08 04:36:56;;;;;;;5.53;4.00;;;;;;;;;;5071389;28;20021;-84
2023/04/08 04:39:22;;;;;;;5.45;4.03;;;;;;;;;;5069851;28;20492;-84
2023/04/08 04:41:48;;;;;;;6.72;4.38;;;;;;;;;;5071040;28;20036;-85
2023/04/08 04:44:14;;;;;;;6.30;4.38;;;;;;;;;;5070633;28;20033;-84
2023/04/08 04:46:40;;;;;;;5.57;4.45;;;;;;;;;;5071787;28;20123;-86
2023/04/08 04:49:06;;;;;;;5.68;3.97;;;;;;;;;;5070535;28;20120;-85
2023/04/08 04:51:32;;;;;;;6.65;4.50;;;;;;;;;;5071350;28;20032;-86
2023/04/08 04:53:57;;;;;;;6.53;4.50;;;;;;;;;;5080325;28;20057;-85
2023/04/08 04:56:25;;;;;;;7.38;4.72;;;;;;;;;;5071208;28;20398;-84
2023/04/08 04:58:50;;;;;;;6.55;4.45;;;;;;;;;;5071611;28;20032;-83
2023/04/08 05:01:19;;;;;;;6.25;4.20;;;;;;;;;;5073655;28;20086;-86
2023/04/08 05:03:45;;;;;;;6.70;4.60;;;;;;;;;;5072269;28;20526;-85
2023/04/08 05:06:10;;;;;;;7.22;4.72;;;;;;;;;;5073188;28;20144;-85
2023/04/08 05:08:36;;;;;;;7.10;5.05;;;;;;;;;;5068777;28;20041;-85
2023/04/08 05:11:01;;;;;;;9.50;5.25;;;;;;;;;;5054658;28;20073;-87
2023/04/08 05:13:28;;;;;;;8.90;5.68;;;;;;;;;;5071908;28;20035;-84
2023/04/08 05:15:53;;;;;;;9.23;5.50;;;;;;;;;;5087570;28;20033;-84
2023/04/08 05:18:19;;;;;;;10.77;5.95;;;;;;;;;;5071298;28;20039;-83
2023/04/08 05:20:45;;;;;;;7.93;5.40;;;;;;;;;;5072827;28;20063;-84
2023/04/08 05:23:10;;;;;;;10.65;5.85;;;;;;;;;;5067693;28;20127;-83
2023/04/08 05:25:36;;;;;;;10.75;7.00;;;;;;;;;;5072533;28;20071;-83
2023/04/08 05:28:02;;;;;;;9.57;6.30;;;;;;;;;;5072869;28;20071;-81
2023/04/08 05:30:28;;;;;;;9.85;6.30;;;;;;;;;;5074280;28;20098;-85
2023/04/08 05:32:53;;;;;;;8.40;5.55;;;;;;;;;;5073565;28;20040;-82
2023/04/08 05:35:19;;;;;;;12.25;5.25;;;;;;;;;;5073405;28;20056;-83
2023/04/08 05:37:44;;;;;;;10.43;5.55;;;;;;;;;;5072868;28;20097;-83
2023/04/08 05:40:10;;;;;;;7.13;4.88;;;;;;;;;;5054306;28;20039;-85
2023/04/08 05:42:36;;;;;;;8.77;5.35;;;;;;;;;;5075989;28;20032;-84
2023/04/08 05:45:01;;;;;;;8.27;5.57;;;;;;;;;;5078539;28;20051;-85
2023/04/08 05:47:27;;;;;;;8.73;5.85;;;;;;;;;;5076319;28;20112;-83
2023/04/08 05:49:52;;;;;;;8.30;5.75;;;;;;;;;;5072034;28;20376;-84
2023/04/08 05:52:18;;;;;;;8.13;6.03;;;;;;;;;;5054315;28;20028;-85
2023/04/08 05:54:44;;;;;;;8.05;5.68;;;;;;;;;;5074395;28;20032;-85
2023/04/08 05:57:10;;;;;;;10.32;6.40;;;;;;;;;;5073508;28;20435;-85
2023/04/08 05:59:35;;;;;;;10.40;6.35;;;;;;;;;;5075342;28;20107;-85
2023/04/08 06:02:01;;;;;;;8.68;5.88;;;;;;;;;;5071135;28;20454;-84
2023/04/08 06:04:26;;;;;;;8.07;6.03;;;;;;;;;;5072134;28;20060;-84
2023/04/08 06:06:52;;;;;;;8.57;6.18;;;;;;;;;;5074965;28;20047;-85
2023/04/08 06:09:17;;;;;;;11.27;6.43;;;;;;;;;;5085074;28;20189;-84
2023/04/08 06:11:43;;;;;;;8.27;6.03;;;;;;;;;;5076058;28;20068;-84
2023/04/08 06:14:08;;;;;;;9.50;6.13;;;;;;;;;;5076049;28;20032;-85
2023/04/08 06:16:34;;;;;;;9.00;6.55;;;;;;;;;;5076236;28;20040;-84
2023/04/08 06:18:59;;;;;;;11.25;6.20;;;;;;;;;;5075982;28;20042;-85
2023/04/08 06:21:25;;;;;;;10.35;6.53;;;;;;;;;;5076170;28;20108;-86
2023/04/08 06:23:51;;;;;;;10.93;6.55;;;;;;;;;;5076002;28;20036;-84
2023/04/08 06:26:16;;;;;;;10.52;6.70;;;;;;;;;;5074220;28;20090;-86
2023/04/08 06:28:42;;;;;;;9.65;6.80;;;;;;;;;;5075475;28;20050;-84
2023/04/08 06:31:08;;;;;;;9.45;6.75;;;;;;;;;;5081062;28;20036;-80
2023/04/08 06:33:33;;;;;;;10.13;6.90;;;;;;;;;;5081164;28;20058;-85
2023/04/08 06:36:03;;;;;;;11.30;7.43;;;;;;;;;;5076783;28;20074;-86
2023/04/08 06:38:29;;;;;;;13.65;7.28;;;;;;;;;;5074063;28;20101;-85
2023/04/08 06:40:55;;;;;;;11.05;7.07;;;;;;;;;;5075770;28;20107;-86
2023/04/08 06:43:20;;;;;;;10.52;7.10;;;;;;;;;;5073910;28;20075;-84
2023/04/08 06:45:46;;;;;;;10.32;7.28;;;;;;;;;;5075816;28;20040;-84
2023/04/08 06:48:11;;;;;;;9.50;6.72;;;;;;;;;;5055736;28;20091;-86
2023/04/08 06:50:37;;;;;;;9.75;7.00;;;;;;;;;;5075732;28;20036;-85
2023/04/08 06:53:02;;;;;;;11.05;7.10;;;;;;;;;;5075275;28;20485;-84
2023/04/08 06:55:28;;;;;;;10.98;6.80;;;;;;;;;;5076186;28;20032;-84
2023/04/08 06:57:53;;;;;;;11.40;7.05;;;;;;;;;;5072869;28;20175;-86
2023/04/08 07:00:18;;;;;;;11.40;7.00;;;;;;;;;;5073218;28;20032;-84
2023/04/08 07:02:44;;;;;;;12.13;7.20;;;;;;;;;;5074696;28;20051;-86
2023/04/08 07:05:10;;;;;;;10.77;6.85;;;;;;;;;;5073043;28;20032;-86
2023/04/08 07:07:35;;;;;;;12.00;7.30;;;;;;;;;;5074572;28;20497;-83
2023/04/08 07:10:00;;;;;;;10.32;7.40;;;;;;;;;;5074253;28;20039;-83
2023/04/08 07:12:26;;;;;;;10.30;7.18;;;;;;;;;;5072588;28;20036;-84
2023/04/08 07:14:52;;;;;;;10.05;7.05;;;;;;;;;;5073962;28;20047;-83
2023/04/08 07:17:17;;;;;;;10.50;7.05;;;;;;;;;;5073898;28;20579;-84
2023/04/08 07:19:43;;;;;;;11.32;7.38;;;;;;;;;;5072306;28;20123;-82
2023/04/08 07:22:08;;;;;;;10.52;7.13;;;;;;;;;;5073920;28;20448;-85
2023/04/08 07:24:34;;;;;;;12.07;7.70;;;;;;;;;;5080626;28;20020;-81
2023/04/08 07:27:00;;;;;;;10.88;7.13;;;;;;;;;;5059713;28;20090;-85
2023/04/08 07:29:26;;;;;;;10.13;7.50;;;;;;;;;;5053568;28;20422;-82
2023/04/08 07:31:52;;;;;;;9.02;6.53;;;;;;;;;;5074757;28;20114;-82
2023/04/08 07:34:17;;;;;;;12.88;6.88;;;;;;;;;;5084918;28;20494;-83
2023/04/08 07:36:43;;;;;;;11.07;7.47;;;;;;;;;;5074439;28;20056;-85
2023/04/08 07:39:08;;;;;;;11.52;7.32;;;;;;;;;;5089819;28;20029;-85
2023/04/08 07:41:34;;;;;;;11.80;7.55;;;;;;;;;;5074781;28;20038;-84
2023/04/08 07:43:59;;;;;;;10.95;7.40;;;;;;;;;;5074450;28;20032;-85
2023/04/08 07:46:25;;;;;;;11.63;7.45;;;;;;;;;;5076219;28;20522;-86
2023/04/08 07:48:50;;;;;;;12.80;7.97;;;;;;;;;;5075648;28;20032;-86
2023/04/08 07:51:16;;;;;;;13.10;8.82;;;;;;;;;;5075614;28;20036;-85
2023/04/08 07:53:41;;;;;;;11.65;8.20;;;;;;;;;;5076309;28;20032;-85
2023/04/08 07:56:12;;;;;;;12.68;8.07;;;;;;;;;;5070257;28;20111;-84
2023/04/08 07:58:39;;;;;;;15.02;9.75;;;;;;;;;;5073070;28;20036;-85
2023/04/08 08:01:14;;;;;;;12.82;8.65;;;;;;;;;;5057395;28;20036;-85
2023/04/08 08:03:39;;;;;;;13.43;8.90;;;;;;;;;;5073969;28;20036;-85
2023/04/08 08:06:05;;;;;;;14.75;8.82;;;;;;;;;;5041998;28;20043;-85
2023/04/08 08:08:32;;;;;;;13.75;8.40;;;;;;;;;;5072661;28;20118;-85
2023/04/08 08:10:58;;;;;;;14.18;8.77;;;;;;;;;;5074361;28;20102;-85
2023/04/08 08:13:24;;;;;;;13.52;8.88;;;;;;;;;;5074096;28;20044;-85
2023/04/08 08:15:52;;;;;;;13.98;8.65;;;;;;;;;;5055563;28;20051;-86
2023/04/08 08:18:18;;;;;;;20.10;11.73;;;;;;;;;;5056643;28;20037;-85
2023/04/08 08:20:43;;;;;;;18.42;11.50;;;;;;;;;;5074293;28;20032;-85
2023/04/08 08:23:08;;;;;;;18.73;12.73;;;;;;;;;;5089512;28;20036;-86
2023/04/08 08:25:34;;;;;;;19.90;12.13;;;;;;;;;;5072853;28;20036;-85
2023/04/08 08:27:59;;;;;;;19.65;11.77;;;;;;;;;;5073773;28;20135;-85
2023/04/08 08:30:25;;;;;;;20.33;12.32;;;;;;;;;;5073562;28;20394;-83
2023/04/08 08:32:51;;;;;;;19.40;12.05;;;;;;;;;;5073470;28;20445;-83
2023/04/08 08:35:16;;;;;;;17.88;10.68;;;;;;;;;;5088159;28;20036;-85
2023/04/08 08:37:42;;;;;;;17.63;11.57;;;;;;;;;;5083171;28;20049;-85
2023/04/08 08:40:08;;;;;;;19.65;11.60;;;;;;;;;;5073877;28;20039;-81
2023/04/08 08:42:34;;;;;;;22.65;12.15;;;;;;;;;;5081251;28;20033;-85
2023/04/08 08:45:03;;;;;;;19.55;11.55;;;;;;;;;;5073061;28;20039;-85
2023/04/08 08:47:29;;;;;;;19.95;12.15;;;;;;;;;;5071639;28;20556;-85
2023/04/08 08:49:55;;;;;;;21.95;12.65;;;;;;;;;;5074551;28;20036;-85
2023/04/08 08:52:20;;;;;;;20.35;11.60;;;;;;;;;;5077849;28;20038;-84
2023/04/08 08:54:46;;;;;;;20.58;11.52;;;;;;;;;;5075841;28;20040;-86
2023/04/08 08:57:18;;;;;;;20.35;11.25;;;;;;;;;;5071996;28;20085;-85
2023/04/08 08:59:46;;;;;;;19.60;11.80;;;;;;;;;;5086843;28;20525;-84
2023/04/08 09:02:25;;;;;;;19.00;12.90;;;;;;;;;;5071050;28;20043;-87
2023/04/08 09:04:57;;;;;;;20.73;12.30;;;;;;;;;;5071539;28;20041;-84
2023/04/08 09:07:26;;;;;;;19.95;11.70;;;;;;;;;;5070924;28;20092;-86
2023/04/08 09:09:52;;;;;;;19.25;12.27;;;;;;;;;;5072425;28;20051;-84
2023/04/08 09:12:18;;;;;;;20.20;11.05;;;;;;;;;;5082818;28;20040;-86
2023/04/08 09:14:43;;;;;;;20.27;12.35;;;;;;;;;;5072748;28;20044;-84
2023/04/08 09:17:09;;;;;;;20.83;12.65;;;;;;;;;;5069488;28;20036;-85
2023/04/08 09:19:35;;;;;;;19.85;11.98;;;;;;;;;;5063832;28;20398;-85
2023/04/08 09:22:08;;;;;;;22.50;12.38;;;;;;;;;;5072649;28;20042;-85
2023/04/08 09:24:34;;;;;;;21.25;12.77;;;;;;;;;;5068637;28;20032;-85
2023/04/08 09:27:00;;;;;;;18.92;11.27;;;;;;;;;;5072508;28;20025;-84
2023/04/08 09:29:26;;;;;;;19.65;12.10;;;;;;;;;;5071726;28;20042;-84
2023/04/08 09:31:56;;;;;;;19.38;11.45;;;;;;;;;;5072245;28;20039;-87
2023/04/08 09:34:22;;;;;;;18.90;12.13;;;;;;;;;;5067364;28;20040;-85
2023/04/08 09:36:51;;;;;;;23.17;11.95;;;;;;;;;;5072714;28;20025;-83
2023/04/08 09:39:17;;;;;;;17.75;11.25;;;;;;;;;;5082648;28;20097;-85
2023/04/08 09:41:43;;;;;;;19.67;11.38;;;;;;;;;;5072174;28;20679;-86
2023/04/08 09:44:10;;;;;;;16.77;10.95;;;;;;;;;;5069995;28;20097;-86
2023/04/08 09:46:44;;;;;;;18.27;12.50;;;;;;;;;;5072470;28;20032;-84
2023/04/08 09:49:11;;;;;;;;;;;;;;;;;;5065475;28;20082;-81
2023/04/08 09:51:49;;;;;;;20.75;12.48;;;;;;;;;;5068491;28;19919;-84
2023/04/08 09:54:20;;;;;;;20.77;12.35;;;;;;;;;;5072672;28;20059;-83
2023/04/08 09:56:58;;;;;;;19.98;12.73;;;;;;;;;;5071491;28;20036;-84
2023/04/08 09:59:29;;;;;;;17.85;11.25;;;;;;;;;;5070530;28;20149;-84
2023/04/08 10:01:56;;;;;;;19.52;12.02;;;;;;;;;;5072595;28;20040;-84
2023/04/08 10:04:25;;;;;;;17.77;11.32;;;;;;;;;;5072143;28;20033;-82
2023/04/08 10:06:58;;;;;;;17.48;11.75;;;;;;;;;;5072579;28;20571;-87
2023/04/08 10:09:26;;;;;;;21.70;12.93;;;;;;;;;;5071797;28;20047;-86
2023/04/08 10:11:52;;;;;;;20.63;12.73;;;;;;;;;;5069888;28;20040;-86
2023/04/08 10:14:18;;;;;;;19.23;12.02;;;;;;;;;;5069237;28;20032;-86
2023/04/08 10:16:43;;;;;;;17.38;11.18;;;;;;;;;;5060048;28;20025;-83
2023/04/08 10:19:43;;;;;;;18.63;11.75;;;;;;;;;;5070377;28;20493;-85
2023/04/08 10:22:31;;;;;;;17.15;11.27;;;;;;;;;;5067450;28;20041;-84
2023/04/08 10:25:18;;;;;;;13.45;9.23;;;;;;;;;;5070110;28;20036;-84
2023/04/08 10:27:44;;;;;;;13.25;9.30;;;;;;;;;;5073103;28;20051;-84
2023/04/08 10:30:25;;;;;;;12.90;8.88;;;;;;;;;;5075429;28;20056;-84
2023/04/08 10:32:51;;;;;;;11.93;8.65;;;;;;;;;;5057628;28;20575;-86
2023/04/08 10:35:17;;;;;;;12.07;8.18;;;;;;;;;;5090295;28;20037;-86
2023/04/08 10:37:43;;;;;;;12.48;8.35;;;;;;;;;;5075335;28;20043;-85
2023/04/08 10:40:18;;;;;;;15.07;9.98;;;;;;;;;;5076231;28;20032;-85
2023/04/08 10:42:44;;;;;;;12.93;9.30;;;;;;;;;;5096824;28;20464;-86
2023/04/08 10:45:09;;;;;;;11.45;8.13;;;;;;;;;;5089536;28;20047;-85
2023/04/08 10:47:35;;;;;;;11.20;7.95;;;;;;;;;;5075095;28;20074;-85
2023/04/08 10:50:12;;;;;;;11.80;8.43;;;;;;;;;;5075331;28;20066;-85
2023/04/08 10:52:48;;;;;;;14.98;9.73;;;;;;;;;;5074784;28;20691;-84
2023/04/08 10:55:15;;;;;;;15.73;9.68;;;;;;;;;;5072367;28;20111;-86
2023/04/08 10:57:41;;;;;;;18.30;10.43;;;;;;;;;;5073195;28;20016;-87
2023/04/08 11:00:10;;;;;;;28.45;15.80;;;;;;;;;;5088508;28;20037;-85
2023/04/08 11:02:39;;;;;;;24.70;12.73;;;;;;;;;;5070433;28;20056;-83
2023/04/08 11:05:05;;;;;;;14.23;8.82;;;;;;;;;;5089570;28;20044;-83
2023/04/08 11:07:30;;;;;;;12.30;8.50;;;;;;;;;;5072729;28;20043;-85
2023/04/08 11:09:56;;;;;;;11.90;7.93;;;;;;;;;;5072857;28;20119;-85
2023/04/08 11:12:22;;;;;;;11.65;8.00;;;;;;;;;;5073891;28;20040;-86
2023/04/08 11:14:51;;;;;;;12.70;8.43;;;;;;;;;;5074677;28;20036;-83
2023/04/08 11:17:17;;;;;;;12.43;8.32;;;;;;;;;;5072965;28;20025;-86
2023/04/08 11:19:43;;;;;;;16.55;9.98;;;;;;;;;;5072709;28;20047;-84
2023/04/08 11:22:11;;;;;;;12.18;8.07;;;;;;;;;;5074120;28;20032;-85
2023/04/08 11:24:37;;;;;;;11.77;8.60;;;;;;;;;;5071560;28;20040;-85
2023/04/08 11:27:05;;;;;;;10.82;8.02;;;;;;;;;;5073801;28;20079;-84
2023/04/08 11:29:32;;;;;;;15.15;9.82;;;;;;;;;;5073444;28;20298;-87
2023/04/08 11:31:57;;;;;;;15.65;10.30;;;;;;;;;;5073660;28;20387;-84
2023/04/08 11:34:24;;;;;;;14.63;9.52;;;;;;;;;;5074529;28;20043;-85
2023/04/08 11:36:52;;;;;;;11.32;8.90;;;;;;;;;;5073794;28;20032;-83
2023/04/08 11:39:22;;;;;;;11.98;9.02;;;;;;;;;;5072608;28;20478;-84
2023/04/08 11:41:47;;;;;;;14.55;9.13;;;;;;;;;;5073282;28;20043;-84
2023/04/08 11:44:13;;;;;;;13.57;9.10;;;;;;;;;;5083136;28;20044;-85
2023/04/08 11:46:39;;;;;;;12.70;9.15;;;;;;;;;;5073752;28;20036;-84
2023/04/08 11:49:07;;;;;;;14.35;10.05;;;;;;;;;;5073939;28;20052;-87
2023/04/08 11:51:54;;;;;;;14.23;10.30;;;;;;;;;;5054750;28;20032;-85
2023/04/08 11:54:30;;;;;;;13.32;10.18;;;;;;;;;;5073299;28;20469;-85
2023/04/08 11:56:57;;;;;;;15.40;11.07;;;;;;;;;;5073687;28;20111;-84
2023/04/08 11:59:25;;;;;;;15.73;11.45;;;;;;;;;;5072991;28;20036;-85
2023/04/08 12:01:51;;;;;;;15.55;10.43;;;;;;;;;;5056658;28;20090;-84
2023/04/08 12:04:16;;;;;;;18.50;11.10;;;;;;;;;;5073637;28;20044;-85
2023/04/08 12:06:45;;;;;;;14.18;10.65;;;;;;;;;;5073477;28;20094;-86
2023/04/08 12:09:11;;;;;;;15.70;10.95;;;;;;;;;;5089072;28;20032;-84
2023/04/08 12:11:37;;;;;;;15.70;10.95;;;;;;;;;;5073858;28;20043;-85
2023/04/08 12:14:02;;;;;;;15.52;11.05;;;;;;;;;;5074309;28;20111;-85
2023/04/08 12:16:28;;;;;;;15.32;11.10;;;;;;;;;;5074468;28;20486;-86
2023/04/08 12:18:53;;;;;;;15.43;11.10;;;;;;;;;;5072566;28;20052;-84
2023/04/08 12:21:19;;;;;;;16.90;11.63;;;;;;;;;;5072520;28;20039;-83
2023/04/08 12:23:44;;;;;;;15.35;10.55;;;;;;;;;;5073558;28;20086;-83
2023/04/08 12:26:10;;;;;;;15.32;11.43;;;;;;;;;;5073414;28;20051;-84
2023/04/08 12:28:36;;;;;;;17.48;11.55;;;;;;;;;;5072329;28;20040;-85
2023/04/08 12:31:02;;;;;;;15.82;11.00;;;;;;;;;;5072926;28;20085;-85
2023/04/08 12:33:27;;;;;;;16.05;11.52;;;;;;;;;;5085979;28;20101;-85
2023/04/08 12:35:53;;;;;;;21.48;12.38;;;;;;;;;;5068624;28;20079;-83
2023/04/08 12:38:18;;;;;;;18.98;12.23;;;;;;;;;;5073375;28;20087;-85
2023/04/08 12:40:44;;;;;;;16.00;10.80;;;;;;;;;;5071683;28;20544;-83
2023/04/08 12:43:10;;;;;;;17.30;11.35;;;;;;;;;;5073073;28;20040;-84
2023/04/08 12:45:35;;;;;;;15.90;11.00;;;;;;;;;;5079889;28;20029;-82
2023/04/08 12:48:01;;;;;;;17.48;11.90;;;;;;;;;;5070689;28;20555;-86
2023/04/08 12:50:26;;;;;;;15.73;11.15;;;;;;;;;;5068809;28;20540;-84
2023/04/08 12:52:52;;;;;;;16.58;11.82;;;;;;;;;;5073460;28;20060;-85
2023/04/08 12:55:18;;;;;;;15.10;10.75;;;;;;;;;;5069890;28;20036;-85
2023/04/08 12:57:43;;;;;;;17.02;11.88;;;;;;;;;;5073393;28;20494;-83
2023/04/08 13:00:10;;;;;;;17.40;12.18;;;;;;;;;;5055254;28;20079;-87
2023/04/08 13:02:35;;;;;;;14.98;11.10;;;;;;;;;;5073015;28;20029;-85
2023/04/08 13:05:01;;;;;;;16.52;11.40;;;;;;;;;;5071968;28;20456;-87
2023/04/08 13:07:26;;;;;;;17.13;11.68;;;;;;;;;;5072263;28;20043;-87
2023/04/08 13:09:52;;;;;;;14.68;10.05;;;;;;;;;;5073819;28;20032;-85
2023/04/08 13:12:17;;;;;;;14.85;10.95;;;;;;;;;;5072666;28;20135;-85
2023/04/08 13:14:43;;;;;;;14.45;11.05;;;;;;;;;;5070995;28;20040;-85
2023/04/08 13:17:08;;;;;;;14.48;10.77;;;;;;;;;;5083919;28;20379;-85
2023/04/08 13:19:34;;;;;;;15.32;10.75;;;;;;;;;;5072075;28;20039;-86
2023/04/08 13:21:59;;;;;;;14.65;11.02;;;;;;;;;;5072432;28;20123;-85
2023/04/08 13:24:25;;;;;;;15.98;11.32;;;;;;;;;;5070818;28;20074;-84
2023/04/08 13:26:51;;;;;;;14.38;10.60;;;;;;;;;;5075189;28;20563;-85
2023/04/08 13:29:16;;;;;;;16.90;11.27;;;;;;;;;;5074839;28;20032;-85
2023/04/08 13:31:42;;;;;;;15.20;11.38;;;;;;;;;;5073934;28;20074;-86
2023/04/08 13:34:07;;;;;;;15.32;11.40;;;;;;;;;;5073431;28;20043;-86
2023/04/08 13:36:33;;;;;;;16.42;11.32;;;;;;;;;;5073827;28;20464;-83
2023/04/08 13:38:58;;;;;;;17.20;11.65;;;;;;;;;;5070709;28;20080;-84
2023/04/08 13:41:24;;;;;;;18.25;11.93;;;;;;;;;;5080443;28;20041;-85
2023/04/08 13:43:49;;;;;;;16.38;11.38;;;;;;;;;;5074999;28;20036;-87
2023/04/08 13:46:15;;;;;;;15.07;10.40;;;;;;;;;;5089222;28;20059;-81
2023/04/08 13:48:40;;;;;;;17.27;11.80;;;;;;;;;;5079261;28;20048;-85
2023/04/08 13:51:06;;;;;;;16.00;10.85;;;;;;;;;;5072944;28;20082;-85
2023/04/08 13:53:31;;;;;;;14.32;10.02;;;;;;;;;;5073925;28;20045;-86
2023/04/08 13:55:57;;;;;;;16.25;11.63;;;;;;;;;;5072202;28;20032;-83
2023/04/08 13:58:24;;;;;;;16.10;11.65;;;;;;;;;;5072573;28;20050;-82
2023/04/08 14:00:50;;;;;;;17.67;11.82;;;;;;;;;;5072620;28;20044;-86
2023/04/08 14:03:16;;;;;;;18.52;12.02;;;;;;;;;;5076377;28;20029;-86
2023/04/08 14:05:42;;;;;;;17.40;11.07;;;;;;;;;;5076006;28;20409;-84
2023/04/08 14:08:08;;;;;;;15.40;11.00;;;;;;;;;;5075176;28;20494;-86
2023/04/08 14:10:33;;;;;;;15.32;10.82;;;;;;;;;;5077806;28;20061;-85
2023/04/08 14:12:59;;;;;;;16.30;10.65;;;;;;;;;;5077885;28;20028;-85
2023/04/08 14:15:24;;;;;;;14.40;10.15;;;;;;;;;;5060445;28;20041;-86
2023/04/08 14:17:50;;;;;;;15.50;10.68;;;;;;;;;;5056048;28;20044;-84
2023/04/08 14:20:16;;;;;;;16.60;11.10;;;;;;;;;;5075988;28;20036;-86
2023/04/08 14:22:41;;;;;;;14.40;10.02;;;;;;;;;;5075491;28;20032;-85
2023/04/08 14:25:07;;;;;;;14.85;10.40;;;;;;;;;;5075179;28;20041;-85
2023/04/08 14:27:33;;;;;;;12.00;8.68;;;;;;;;;;5090964;28;20516;-86
2023/04/08 14:29:58;;;;;;;11.57;8.80;;;;;;;;;;5072597;28;20024;-86